createdAt,value
2023-04-29T00:01:51.886Z,11.80
2023-04-29T00:04:19.952Z,11.80
2023-04-29T00:06:47.097Z,11.80
2023-04-29T00:09:14.262Z,11.70
2023-04-29T00:11:41.362Z,11.70
2023-04-29T00:14:08.534Z,11.70
2023-04-29T00:16:35.957Z,11.70
2023-04-29T00:19:06.566Z,11.70
2023-04-29T00:21:33.819Z,11.60
2023-04-29T00:24:00.929Z,11.70
2023-04-29T00:26:31.264Z,11.70
2023-04-29T00:28:58.966Z,11.60
2023-04-29T00:31:26.285Z,11.60
2023-04-29T00:33:53.638Z,11.50
2023-04-29T00:36:20.794Z,11.40
2023-04-29T00:38:47.918Z,11.30
2023-04-29T00:41:15.183Z,11.20
2023-04-29T00:43:43.037Z,11.10
2023-04-29T00:46:10.605Z,11.10
2023-04-29T00:48:37.903Z,11.10
2023-04-29T00:51:05.955Z,11.00
2023-04-29T00:53:33.603Z,11.00
2023-04-29T00:56:02.499Z,10.90
2023-04-29T00:58:35.383Z,10.80
2023-04-29T01:01:04.001Z,10.80
2023-04-29T01:03:32.094Z,10.80
2023-04-29T01:06:14.987Z,10.80
2023-04-29T01:08:42.327Z,10.80
2023-04-29T01:11:12.023Z,10.80
2023-04-29T01:13:51.880Z,10.80
2023-04-29T01:16:35.217Z,10.80
2023-04-29T01:19:22.513Z,10.90
2023-04-29T01:21:50.266Z,11.00
2023-04-29T01:24:17.741Z,11.00
2023-04-29T01:26:56.928Z,11.00
2023-04-29T01:30:01.348Z,11.00
2023-04-29T01:32:41.889Z,11.00
2023-04-29T01:35:54.348Z,11.00
2023-04-29T01:38:47.495Z,11.00
2023-04-29T01:41:23.686Z,11.00
2023-04-29T01:43:58.961Z,11.00
2023-04-29T01:46:28.340Z,11.10
2023-04-29T01:48:58.314Z,11.10
2023-04-29T01:51:28.616Z,11.10
2023-04-29T01:53:56.092Z,11.10
2023-04-29T01:56:23.423Z,11.20
2023-04-29T01:59:05.109Z,11.20
2023-04-29T02:01:52.656Z,11.10
2023-04-29T02:04:20.372Z,11.20
2023-04-29T02:06:47.565Z,11.10
2023-04-29T02:09:19.241Z,11.10
2023-04-29T02:11:51.965Z,11.20
2023-04-29T02:14:22.255Z,11.20
2023-04-29T02:16:51.047Z,11.20
2023-04-29T02:19:18.149Z,11.20
2023-04-29T02:21:45.886Z,11.20
2023-04-29T02:24:13.068Z,11.10
2023-04-29T02:26:40.151Z,11.20
2023-04-29T02:29:07.401Z,11.10
2023-04-29T02:31:34.444Z,11.10
2023-04-29T02:34:01.572Z,11.10
2023-04-29T02:36:28.628Z,11.10
2023-04-29T02:38:56.568Z,11.00
2023-04-29T02:41:26.316Z,11.00
2023-04-29T02:43:53.613Z,11.00
2023-04-29T02:46:20.785Z,11.00
2023-04-29T02:48:48.029Z,11.00
2023-04-29T02:51:16.421Z,11.00
2023-04-29T02:53:44.318Z,11.00
2023-04-29T02:56:11.788Z,11.00
2023-04-29T02:58:39.138Z,11.10
2023-04-29T03:01:06.321Z,11.00
2023-04-29T03:03:33.640Z,11.10
2023-04-29T03:06:02.035Z,11.10
2023-04-29T03:08:29.144Z,11.10
2023-04-29T03:10:56.462Z,11.00
2023-04-29T03:13:24.148Z,11.10
2023-04-29T03:15:52.436Z,11.10
2023-04-29T03:18:19.530Z,11.00
2023-04-29T03:20:48.143Z,11.00
2023-04-29T03:23:15.481Z,11.00
2023-04-29T03:25:42.689Z,11.00
2023-04-29T03:28:09.809Z,11.00
2023-04-29T03:30:37.960Z,11.10
2023-04-29T03:33:05.191Z,11.00
2023-04-29T03:35:32.945Z,11.00
2023-04-29T03:38:18.034Z,11.00
2023-04-29T03:40:46.422Z,11.00
2023-04-29T03:43:15.331Z,11.10
2023-04-29T03:45:42.474Z,11.10
2023-04-29T03:48:10.273Z,11.10
2023-04-29T03:50:37.640Z,11.10
2023-04-29T03:53:04.962Z,11.10
2023-04-29T03:55:35.108Z,11.10
2023-04-29T03:58:02.729Z,11.10
2023-04-29T04:00:31.551Z,11.10
2023-04-29T04:03:05.096Z,11.10
2023-04-29T04:05:32.848Z,11.10
2023-04-29T04:08:06.397Z,11.10
2023-04-29T04:10:39.552Z,11.10
2023-04-29T04:13:16.970Z,11.10
2023-04-29T04:15:51.235Z,11.20
2023-04-29T04:18:18.829Z,11.20
2023-04-29T04:20:45.858Z,11.20
2023-04-29T04:23:13.342Z,11.20
2023-04-29T04:25:50.152Z,11.20
2023-04-29T04:28:35.614Z,11.20
2023-04-29T04:31:08.194Z,11.20
2023-04-29T04:33:36.481Z,11.20
2023-04-29T04:36:05.913Z,11.30
2023-04-29T04:38:33.270Z,11.30
2023-04-29T04:41:02.981Z,11.30
2023-04-29T04:43:34.578Z,11.30
2023-04-29T04:46:11.992Z,11.40
2023-04-29T04:48:43.866Z,11.40
2023-04-29T04:51:14.636Z,11.50
2023-04-29T04:53:43.540Z,11.50
2023-04-29T04:56:18.869Z,11.50
2023-04-29T04:58:46.809Z,11.50
2023-04-29T05:01:14.763Z,11.50
2023-04-29T05:03:42.079Z,11.50
2023-04-29T05:06:09.436Z,11.50
2023-04-29T05:08:38.662Z,11.50
2023-04-29T05:11:15.700Z,11.60
2023-04-29T05:13:43.047Z,11.60
2023-04-29T05:16:11.960Z,11.60
2023-04-29T05:18:45.764Z,11.60
2023-04-29T05:21:14.564Z,11.70
2023-04-29T05:23:43.707Z,11.60
2023-04-29T05:26:15.003Z,11.60
2023-04-29T05:28:45.589Z,11.70
2023-04-29T05:31:17.246Z,11.80
2023-04-29T05:33:44.466Z,11.80
2023-04-29T05:40:26.515Z,11.90
2023-04-29T05:43:09.788Z,12.00
2023-04-29T05:46:14.423Z,12.00
2023-04-29T05:48:51.179Z,12.00
2023-04-29T05:51:27.976Z,12.00
2023-04-29T05:54:03.640Z,12.00
2023-04-29T06:01:03.248Z,12.10
2023-04-29T06:08:31.922Z,12.20
2023-04-29T06:11:06.932Z,12.20
2023-04-29T06:13:34.472Z,12.20
2023-04-29T06:16:36.390Z,12.30
2023-04-29T06:19:06.604Z,12.30
2023-04-29T06:21:33.835Z,12.40
2023-04-29T06:24:00.981Z,12.40
2023-04-29T06:26:28.041Z,12.40
2023-04-29T06:28:55.447Z,12.40
2023-04-29T06:31:23.283Z,12.50
2023-04-29T06:33:51.806Z,12.50
2023-04-29T06:36:18.873Z,12.50
2023-04-29T06:39:03.393Z,12.70
2023-04-29T06:41:59.779Z,12.80
2023-04-29T06:44:45.387Z,13.00
2023-04-29T06:47:28.435Z,13.10
2023-04-29T06:50:25.707Z,13.10
2023-04-29T06:52:53.022Z,13.10
2023-04-29T06:55:20.102Z,13.10
2023-04-29T06:57:47.584Z,13.30
2023-04-29T07:00:16.028Z,13.20
2023-04-29T07:02:43.376Z,13.20
2023-04-29T07:05:10.967Z,13.20
2023-04-29T07:07:40.818Z,13.40
2023-04-29T07:14:29.957Z,13.50
2023-04-29T07:16:59.674Z,13.50
2023-04-29T07:19:32.932Z,13.70
2023-04-29T07:22:00.169Z,13.80
2023-04-29T07:24:27.276Z,13.80
2023-04-29T07:26:54.425Z,13.90
2023-04-29T07:29:21.615Z,14.00
2023-04-29T07:31:48.846Z,14.00
2023-04-29T07:34:18.181Z,14.00
2023-04-29T07:36:45.469Z,14.10
2023-04-29T07:39:15.048Z,14.10
2023-04-29T07:41:51.426Z,14.30
2023-04-29T07:44:18.498Z,14.50
2023-04-29T07:46:45.660Z,14.90
2023-04-29T07:49:13.755Z,15.00
2023-04-29T07:51:42.591Z,15.20
2023-04-29T07:54:11.085Z,15.30
2023-04-29T07:56:38.043Z,15.40
2023-04-29T07:59:05.203Z,15.40
2023-04-29T08:01:32.818Z,15.30
2023-04-29T08:04:00.035Z,15.10
2023-04-29T08:06:27.742Z,15.00
2023-04-29T08:08:56.503Z,15.00
2023-04-29T08:11:26.238Z,15.00
2023-04-29T08:13:54.894Z,14.90
2023-04-29T08:16:26.281Z,14.90
2023-04-29T08:18:54.397Z,14.90
2023-04-29T08:21:21.360Z,14.90
2023-04-29T08:23:48.390Z,14.90
2023-04-29T08:26:15.572Z,15.10
2023-04-29T08:28:42.626Z,15.30
2023-04-29T08:31:20.101Z,15.30
2023-04-29T08:33:47.817Z,15.30
2023-04-29T08:36:15.481Z,15.20
2023-04-29T08:38:42.545Z,15.30
2023-04-29T08:41:09.842Z,15.40
2023-04-29T08:43:41.055Z,15.30
2023-04-29T08:46:08.376Z,15.40
2023-04-29T08:48:38.130Z,15.60
2023-04-29T08:51:05.438Z,15.90
2023-04-29T08:53:32.564Z,16.10
2023-04-29T08:56:13.586Z,16.30
2023-04-29T08:58:42.492Z,16.50
2023-04-29T09:01:10.829Z,16.50
2023-04-29T09:03:49.893Z,16.50
2023-04-29T09:06:21.353Z,16.50
2023-04-29T09:08:48.709Z,16.30
2023-04-29T09:11:16.365Z,16.30
2023-04-29T09:13:43.399Z,16.30
2023-04-29T09:16:13.856Z,16.30
2023-04-29T09:18:51.895Z,16.30
2023-04-29T09:21:21.774Z,16.10
2023-04-29T09:24:01.848Z,16.10
2023-04-29T09:26:41.383Z,16.10
2023-04-29T09:29:11.754Z,16.00
2023-04-29T09:31:42.217Z,16.00
2023-04-29T09:34:11.706Z,15.80
2023-04-29T09:36:45.680Z,15.80
2023-04-29T09:39:15.878Z,15.70
2023-04-29T09:41:55.049Z,15.60
2023-04-29T09:44:33.959Z,15.50
2023-04-29T09:47:05.671Z,15.50
2023-04-29T09:49:43.144Z,15.40
2023-04-29T09:52:12.536Z,15.30
2023-04-29T09:54:41.180Z,15.10
2023-04-29T09:57:10.056Z,15.00
2023-04-29T09:59:39.823Z,15.00
2023-04-29T10:02:20.231Z,14.90
2023-04-29T10:04:54.500Z,14.90
2023-04-29T10:07:22.650Z,14.90
2023-04-29T10:09:51.971Z,15.00
2023-04-29T10:12:23.659Z,15.00
2023-04-29T10:15:28.262Z,15.00
2023-04-29T10:18:03.355Z,15.10
2023-04-29T10:20:31.495Z,15.00
2023-04-29T10:23:45.341Z,15.00
2023-04-29T10:26:13.983Z,14.70
2023-04-29T10:28:43.561Z,14.60
2023-04-29T10:31:12.764Z,14.50
2023-04-29T10:33:45.939Z,14.20
2023-04-29T10:36:13.576Z,14.00
2023-04-29T10:38:53.845Z,13.90
2023-04-29T10:41:24.800Z,13.50
2023-04-29T10:43:55.843Z,13.40
2023-04-29T10:46:29.249Z,13.20
2023-04-29T10:49:00.364Z,13.30
2023-04-29T10:51:46.354Z,13.20
2023-04-29T10:54:15.941Z,13.10
2023-04-29T10:56:54.153Z,13.10
2023-04-29T10:59:23.345Z,13.10
2023-04-29T11:01:52.188Z,13.10
2023-04-29T11:04:23.163Z,13.30
2023-04-29T11:06:55.401Z,13.40
2023-04-29T11:10:16.499Z,13.40
2023-04-29T11:27:46.129Z,13.40
2023-04-29T11:30:14.196Z,13.50
2023-04-29T11:32:43.011Z,13.60
2023-04-29T11:35:12.215Z,13.70
2023-04-29T11:37:43.679Z,13.90
2023-04-29T11:40:49.579Z,13.90
2023-04-29T11:53:06.234Z,14.60
2023-04-29T11:55:33.527Z,14.80
2023-04-29T11:58:00.840Z,14.70
2023-04-29T12:00:27.917Z,14.90
2023-04-29T12:02:54.967Z,15.00
2023-04-29T12:05:25.733Z,15.00
2023-04-29T12:07:52.852Z,14.90
2023-04-29T12:10:21.418Z,14.90
2023-04-29T12:12:48.907Z,14.80
2023-04-29T12:15:16.117Z,14.80
2023-04-29T12:17:43.973Z,14.90
2023-04-29T12:20:12.103Z,15.00
2023-04-29T12:22:39.401Z,15.10
2023-04-29T12:25:07.352Z,15.20
2023-04-29T12:27:40.155Z,15.10
2023-04-29T12:30:11.307Z,15.10
2023-04-29T12:32:38.948Z,15.10
2023-04-29T12:35:06.399Z,15.00
2023-04-29T12:37:35.509Z,15.20
2023-04-29T12:40:04.571Z,15.30
2023-04-29T12:42:34.554Z,15.50
2023-04-29T12:45:01.603Z,15.70
2023-04-29T12:56:37.292Z,16.00
2023-04-29T12:59:08.600Z,16.00
2023-04-29T13:01:36.256Z,16.00
2023-04-29T13:04:05.407Z,16.20
2023-04-29T13:06:33.082Z,16.50
2023-04-29T13:09:00.027Z,16.40
2023-04-29T13:11:32.220Z,16.40
2023-04-29T13:14:01.197Z,16.30
2023-04-29T13:16:28.908Z,16.40
2023-04-29T13:19:12.443Z,16.40
2023-04-29T13:21:44.248Z,16.50
2023-04-29T13:24:11.994Z,16.60
2023-04-29T13:26:39.508Z,16.60
2023-04-29T13:29:06.934Z,16.50
2023-04-29T13:31:33.866Z,16.40
2023-04-29T13:34:00.889Z,16.50
2023-04-29T13:36:28.747Z,16.60
2023-04-29T13:38:55.889Z,16.40
2023-04-29T13:41:22.871Z,16.40
2023-04-29T13:43:51.114Z,16.60
2023-04-29T13:46:20.697Z,16.70
2023-04-29T13:57:05.052Z,16.80
2023-04-29T13:59:37.930Z,16.60
2023-04-29T14:04:22.089Z,16.70
2023-04-29T14:06:49.122Z,16.90
2023-04-29T14:09:16.942Z,16.90
2023-04-29T14:11:43.953Z,16.70
2023-04-29T14:14:10.948Z,16.70
2023-04-29T14:16:37.987Z,16.80
2023-04-29T14:19:05.229Z,16.90
2023-04-29T14:21:33.588Z,17.00
2023-04-29T14:24:02.668Z,17.00
2023-04-29T14:26:31.205Z,17.00
2023-04-29T14:29:00.032Z,16.90
2023-04-29T14:31:31.905Z,16.80
2023-04-29T14:33:59.359Z,16.70
2023-04-29T14:36:26.801Z,16.70
2023-04-29T14:38:54.157Z,16.60
2023-04-29T14:41:22.062Z,16.40
2023-04-29T14:43:49.105Z,16.20
2023-04-29T14:46:16.701Z,16.00
2023-04-29T14:48:43.980Z,15.90
2023-04-29T14:51:11.959Z,15.80
2023-04-29T14:53:39.198Z,15.80
2023-04-29T14:56:08.054Z,15.80
2023-04-29T14:58:35.169Z,15.70
2023-04-29T15:01:04.531Z,15.60
2023-04-29T15:03:31.980Z,15.70
2023-04-29T15:06:03.566Z,15.60
2023-04-29T15:08:31.180Z,15.50
2023-04-29T15:10:58.086Z,15.40
2023-04-29T15:13:25.116Z,15.40
2023-04-29T15:15:52.133Z,15.40
2023-04-29T15:18:19.157Z,15.40
2023-04-29T15:20:46.280Z,15.50
2023-04-29T15:23:13.995Z,15.40
2023-04-29T15:25:40.950Z,15.30
2023-04-29T15:28:08.035Z,15.30
2023-04-29T15:30:35.738Z,15.30
2023-04-29T15:33:02.811Z,15.20
2023-04-29T15:35:29.831Z,15.20
2023-04-29T15:37:56.788Z,15.10
2023-04-29T15:40:23.905Z,15.10
2023-04-29T15:42:50.897Z,15.10
2023-04-29T15:45:17.944Z,15.10
2023-04-29T15:47:44.937Z,15.10
2023-04-29T15:50:12.022Z,15.10
2023-04-29T15:52:38.975Z,15.10
2023-04-29T15:55:07.052Z,15.20
2023-04-29T15:57:34.914Z,15.20
2023-04-29T16:00:02.172Z,15.20
2023-04-29T16:02:29.245Z,15.20
2023-04-29T16:04:56.376Z,15.20
2023-04-29T16:07:23.310Z,15.20
2023-04-29T16:09:50.375Z,15.00
2023-04-29T16:12:17.354Z,15.00
2023-04-29T16:14:44.294Z,15.00
2023-04-29T16:17:11.218Z,15.10
2023-04-29T16:19:38.269Z,15.20
2023-04-29T16:22:05.208Z,15.20
2023-04-29T16:24:32.326Z,15.30
2023-04-29T16:26:59.532Z,15.30
2023-04-29T16:29:26.653Z,15.30
2023-04-29T16:31:53.730Z,15.40
2023-04-29T16:34:20.902Z,15.30
2023-04-29T16:36:48.139Z,15.30
2023-04-29T16:39:15.427Z,15.20
2023-04-29T16:41:42.376Z,15.10
2023-04-29T16:44:09.425Z,15.10
2023-04-29T16:46:36.460Z,15.10
2023-04-29T16:49:03.670Z,15.10
2023-04-29T16:51:33.484Z,15.10
2023-04-29T16:54:00.586Z,15.00
2023-04-29T16:56:29.086Z,15.00
2023-04-29T16:59:01.653Z,15.00
2023-04-29T17:01:29.528Z,15.00
2023-04-29T17:03:56.833Z,15.00
2023-04-29T17:06:24.099Z,15.00
2023-04-29T17:08:51.882Z,14.90
2023-04-29T17:11:18.812Z,14.80
2023-04-29T17:13:46.391Z,14.80
2023-04-29T17:16:16.827Z,14.80
2023-04-29T17:18:44.005Z,14.60
2023-04-29T17:21:11.135Z,14.50
2023-04-29T17:23:38.183Z,14.50
2023-04-29T17:26:05.375Z,14.40
2023-04-29T17:28:33.374Z,14.40
2023-04-29T17:31:01.469Z,14.30
2023-04-29T17:33:35.201Z,14.30
2023-04-29T17:36:04.333Z,14.20
2023-04-29T17:38:35.080Z,14.20
2023-04-29T17:41:02.364Z,14.20
2023-04-29T17:43:32.422Z,14.20
2023-04-29T17:45:59.625Z,14.20
2023-04-29T17:48:26.650Z,14.00
2023-04-29T17:50:54.298Z,14.00
2023-04-29T17:53:21.350Z,14.00
2023-04-29T17:55:48.390Z,13.90
2023-04-29T17:58:15.399Z,13.80
2023-04-29T18:00:42.414Z,13.80
2023-04-29T18:03:09.438Z,13.80
2023-04-29T18:05:36.651Z,13.70
2023-04-29T18:08:04.104Z,13.80
2023-04-29T18:10:31.396Z,13.80
2023-04-29T18:12:58.457Z,13.80
2023-04-29T18:15:25.598Z,13.80
2023-04-29T18:17:54.325Z,13.70
2023-04-29T18:20:22.491Z,13.70
2023-04-29T18:27:44.728Z,13.50
2023-04-29T18:30:12.176Z,13.50
2023-04-29T18:32:39.233Z,13.50
2023-04-29T18:35:06.683Z,13.50
2023-04-29T18:37:33.731Z,13.50
2023-04-29T18:40:00.791Z,13.50
2023-04-29T18:42:27.725Z,13.50
2023-04-29T18:44:55.194Z,13.50
2023-04-29T18:47:22.169Z,13.50
2023-04-29T18:49:49.417Z,13.40
2023-04-29T18:52:16.485Z,13.50
2023-04-29T18:54:43.579Z,13.50
2023-04-29T18:57:10.628Z,13.50
2023-04-29T18:59:38.143Z,13.50
2023-04-29T19:02:06.791Z,13.50
2023-04-29T19:04:34.858Z,13.50
2023-04-29T19:07:04.503Z,13.50
2023-04-29T19:12:28.003Z,13.50
2023-04-29T19:15:04.604Z,13.50
2023-04-29T19:17:38.583Z,13.60
2023-04-29T19:20:17.076Z,13.60
2023-04-29T19:22:48.064Z,13.50
2023-04-29T19:25:16.936Z,13.50
2023-04-29T19:27:51.616Z,13.50
2023-04-29T19:30:21.650Z,13.50
2023-04-29T19:32:53.696Z,13.50
2023-04-29T19:35:34.719Z,13.50
2023-04-29T19:38:03.724Z,13.60
2023-04-29T19:40:36.100Z,13.60
2023-04-29T19:43:03.353Z,13.70
2023-04-29T19:45:30.265Z,13.60
2023-04-29T19:47:59.588Z,13.60
2023-04-29T19:50:27.184Z,13.60
2023-04-29T19:52:54.140Z,13.60
2023-04-29T19:55:21.443Z,13.70
2023-04-29T19:57:48.789Z,13.70
2023-04-29T20:00:15.757Z,13.70
2023-04-29T20:02:42.982Z,13.70
2023-04-29T20:05:10.802Z,13.80
2023-04-29T20:07:37.983Z,13.70
2023-04-29T20:10:06.173Z,13.50
2023-04-29T20:12:33.236Z,13.50
2023-04-29T20:15:00.120Z,13.40
2023-04-29T20:17:28.433Z,13.30
2023-04-29T20:19:55.665Z,13.30
2023-04-29T20:22:23.166Z,13.20
2023-04-29T20:24:50.451Z,13.20
2023-04-29T20:27:17.465Z,13.10
2023-04-29T20:29:44.977Z,13.10
2023-04-29T20:32:12.305Z,13.20
2023-04-29T20:34:39.700Z,13.20
2023-04-29T20:37:07.232Z,13.10
2023-04-29T20:39:34.228Z,13.20
2023-04-29T20:42:03.347Z,13.20
2023-04-29T20:44:31.022Z,13.10
2023-04-29T20:46:58.004Z,13.20
2023-04-29T20:49:25.069Z,13.10
2023-04-29T20:51:52.325Z,13.20
2023-04-29T20:54:19.348Z,13.20
2023-04-29T20:56:46.601Z,13.20
2023-04-29T20:59:13.618Z,13.20
2023-04-29T21:01:40.669Z,13.10
2023-04-29T21:04:07.964Z,13.20
2023-04-29T21:06:35.112Z,13.20
2023-04-29T21:09:04.150Z,13.20
2023-04-29T21:11:31.230Z,13.20
2023-04-29T21:13:58.226Z,13.10
2023-04-29T21:16:25.613Z,13.10
2023-04-29T21:18:52.750Z,13.10
2023-04-29T21:21:19.882Z,13.10
2023-04-29T21:23:47.028Z,13.20
2023-04-29T21:26:15.096Z,13.10
2023-04-29T21:28:42.182Z,13.10
2023-04-29T21:31:15.294Z,13.10
2023-04-29T21:33:44.412Z,13.00
2023-04-29T21:36:11.470Z,13.00
2023-04-29T21:38:38.706Z,13.00
2023-04-29T21:41:06.775Z,13.00
2023-04-29T21:43:33.912Z,13.00
2023-04-29T21:46:01.197Z,13.00
2023-04-29T21:48:28.311Z,13.00
2023-04-29T21:50:55.469Z,13.00
2023-04-29T21:53:22.520Z,13.00
2023-04-29T21:55:49.851Z,13.00
2023-04-29T21:58:17.052Z,13.00
2023-04-29T22:00:58.031Z,13.00
2023-04-29T22:03:25.450Z,12.90
2023-04-29T22:05:52.533Z,12.90
2023-04-29T22:08:19.684Z,12.90
2023-04-29T22:10:46.734Z,12.90
2023-04-29T22:13:14.169Z,12.70
2023-04-29T22:15:41.478Z,12.60
2023-04-29T22:18:08.488Z,12.60
2023-04-29T22:20:35.736Z,12.50
2023-04-29T22:23:02.947Z,12.50
2023-04-29T22:25:29.989Z,12.50
2023-04-29T22:27:57.187Z,12.50
2023-04-29T22:30:24.232Z,12.60
2023-04-29T22:32:51.318Z,12.60
2023-04-29T22:35:18.342Z,12.60
2023-04-29T22:37:45.372Z,12.70
2023-04-29T22:40:13.194Z,12.70
2023-04-29T22:42:41.978Z,12.60
2023-04-29T22:45:11.177Z,12.50
2023-04-29T22:47:38.464Z,12.50
2023-04-29T22:50:06.217Z,12.50
2023-04-29T22:52:33.248Z,12.50
2023-04-29T22:55:00.229Z,12.50
2023-04-29T22:57:27.317Z,12.40
2023-04-29T22:59:57.989Z,12.30
2023-04-29T23:02:29.578Z,12.10
2023-04-29T23:04:57.409Z,12.10
2023-04-29T23:07:25.300Z,12.00
2023-04-29T23:09:53.054Z,12.00
2023-04-29T23:12:20.368Z,12.00
2023-04-29T23:14:47.481Z,11.90
2023-04-29T23:17:14.581Z,11.90
2023-04-29T23:19:42.459Z,11.90
2023-04-29T23:22:09.737Z,11.80
2023-04-29T23:24:36.610Z,11.80
2023-04-29T23:27:04.231Z,11.70
2023-04-29T23:29:34.460Z,11.80
2023-04-29T23:32:01.896Z,11.70
2023-04-29T23:34:28.955Z,11.60
2023-04-29T23:36:55.917Z,11.70
2023-04-29T23:39:22.851Z,11.70
2023-04-29T23:41:49.903Z,11.70
2023-04-29T23:44:16.789Z,11.70
2023-04-29T23:46:43.809Z,11.60
2023-04-29T23:49:10.889Z,11.70
2023-04-29T23:51:37.857Z,11.70
2023-04-29T23:54:04.801Z,11.70
2023-04-29T23:56:33.702Z,11.80
2023-04-29T23:59:00.846Z,11.80
